createdAt,value
2017-08-06T00:00:26.449Z,3.97
2017-08-06T00:02:53.922Z,3.80
2017-08-06T00:05:21.397Z,2.97
2017-08-06T00:07:48.870Z,2.63
2017-08-06T00:10:16.360Z,2.90
2017-08-06T00:12:43.888Z,3.20
2017-08-06T00:15:12.232Z,3.10
2017-08-06T00:17:39.811Z,3.20
2017-08-06T00:20:07.283Z,2.90
2017-08-06T00:22:34.839Z,3.10
2017-08-06T00:25:02.306Z,2.73
2017-08-06T00:27:30.569Z,2.90
2017-08-06T00:29:58.032Z,3.10
2017-08-06T00:32:26.274Z,2.80
2017-08-06T00:34:53.732Z,3.73
2017-08-06T00:37:21.195Z,3.50
2017-08-06T00:39:48.676Z,3.10
2017-08-06T00:42:16.956Z,3.50
2017-08-06T00:44:45.180Z,3.50
2017-08-06T00:47:12.729Z,3.10
2017-08-06T00:49:40.288Z,2.70
2017-08-06T00:52:07.748Z,3.27
2017-08-06T00:54:35.228Z,3.30
2017-08-06T00:57:02.688Z,3.40
2017-08-06T00:59:30.141Z,2.93
2017-08-06T01:01:58.544Z,3.23
2017-08-06T01:04:26.120Z,3.70
2017-08-06T01:06:54.343Z,3.60
2017-08-06T01:09:21.815Z,3.67
2017-08-06T01:11:49.344Z,3.87
2017-08-06T01:14:16.799Z,3.40
2017-08-06T01:16:44.284Z,3.20
2017-08-06T01:19:11.759Z,3.67
2017-08-06T01:21:39.212Z,3.30
2017-08-06T01:24:06.674Z,3.50
2017-08-06T01:26:34.123Z,3.07
2017-08-06T01:29:01.580Z,3.23
2017-08-06T01:31:29.051Z,3.60
2017-08-06T01:33:57.271Z,3.23
2017-08-06T01:36:24.735Z,3.87
2017-08-06T01:38:52.227Z,3.90
2017-08-06T01:41:19.793Z,3.40
2017-08-06T01:43:48.048Z,3.37
2017-08-06T01:46:15.521Z,3.80
2017-08-06T01:48:42.970Z,3.90
2017-08-06T01:51:10.471Z,3.23
2017-08-06T01:53:37.991Z,3.33
2017-08-06T01:56:05.552Z,3.30
2017-08-06T01:58:33.011Z,4.07
2017-08-06T02:01:01.282Z,3.90
2017-08-06T02:03:28.747Z,4.30
2017-08-06T02:05:56.298Z,4.60
2017-08-06T02:08:24.627Z,3.90
2017-08-06T02:10:52.100Z,3.77
2017-08-06T02:13:19.591Z,3.57
2017-08-06T02:15:47.822Z,4.00
2017-08-06T02:18:15.343Z,3.90
2017-08-06T02:20:43.558Z,3.40
2017-08-06T02:23:11.040Z,4.20
2017-08-06T02:25:38.490Z,4.37
2017-08-06T02:28:05.994Z,4.53
2017-08-06T02:30:34.262Z,5.17
2017-08-06T02:33:02.487Z,4.60
2017-08-06T02:35:29.967Z,4.30
2017-08-06T02:37:57.452Z,5.00
2017-08-06T02:40:25.716Z,5.10
2017-08-06T02:42:53.951Z,5.23
2017-08-06T02:45:21.431Z,4.90
2017-08-06T02:47:48.899Z,4.57
2017-08-06T02:50:17.171Z,4.70
2017-08-06T02:52:44.735Z,4.70
2017-08-06T02:55:12.963Z,4.50
2017-08-06T02:57:40.427Z,5.07
2017-08-06T03:00:07.908Z,5.73
2017-08-06T03:02:35.371Z,5.00
2017-08-06T03:05:02.835Z,3.77
2017-08-06T03:07:30.286Z,4.73
2017-08-06T03:09:57.870Z,4.50
2017-08-06T03:12:25.352Z,4.60
2017-08-06T03:14:53.674Z,4.47
2017-08-06T03:17:21.136Z,4.03
2017-08-06T03:19:48.736Z,4.40
2017-08-06T03:22:16.222Z,3.80
2017-08-06T03:24:43.711Z,3.87
2017-08-06T03:27:11.986Z,3.53
2017-08-06T03:29:39.460Z,2.67
2017-08-06T03:32:07.690Z,3.20
2017-08-06T03:34:35.152Z,4.30
2017-08-06T03:37:02.619Z,3.20
2017-08-06T03:39:30.087Z,3.50
2017-08-06T03:41:57.828Z,3.00
2017-08-06T03:44:25.287Z,3.30
2017-08-06T03:46:52.755Z,2.80
2017-08-06T03:49:20.210Z,2.60
2017-08-06T03:51:47.680Z,2.83
2017-08-06T03:54:15.957Z,2.53
2017-08-06T03:56:44.220Z,3.20
2017-08-06T03:59:11.735Z,2.67
2017-08-06T04:01:39.179Z,2.90
2017-08-06T04:04:06.655Z,3.57
2017-08-06T04:06:34.165Z,3.70
2017-08-06T04:09:02.393Z,3.33
2017-08-06T04:11:29.894Z,2.67
2017-08-06T04:13:58.157Z,2.40
2017-08-06T04:16:25.636Z,2.60
2017-08-06T04:18:53.878Z,2.70
2017-08-06T04:21:21.364Z,2.80
2017-08-06T04:23:49.622Z,3.53
2017-08-06T04:26:17.093Z,2.70
2017-08-06T04:28:45.355Z,2.60
2017-08-06T04:31:13.591Z,3.10
2017-08-06T04:33:41.090Z,3.57
2017-08-06T04:36:08.639Z,3.17
2017-08-06T04:38:36.206Z,2.83
2017-08-06T04:41:03.675Z,3.47
2017-08-06T04:43:31.947Z,4.10
2017-08-06T04:46:00.207Z,3.33
2017-08-06T04:48:27.674Z,3.70
2017-08-06T04:50:56.011Z,3.90
2017-08-06T04:53:23.521Z,3.10
2017-08-06T04:55:51.774Z,3.77
2017-08-06T04:58:19.270Z,2.73
2017-08-06T05:00:46.806Z,3.33
2017-08-06T05:03:15.039Z,3.43
2017-08-06T05:05:42.532Z,2.57
2017-08-06T05:08:10.807Z,2.60
2017-08-06T05:10:39.199Z,3.40
2017-08-06T05:13:07.450Z,2.50
2017-08-06T05:15:34.916Z,3.00
2017-08-06T05:18:02.437Z,3.10
2017-08-06T05:20:29.894Z,2.50
2017-08-06T05:22:57.349Z,2.50
2017-08-06T05:25:24.828Z,3.17
2017-08-06T05:27:52.294Z,2.50
2017-08-06T05:30:19.760Z,2.80
2017-08-06T05:32:48.036Z,2.40
2017-08-06T05:35:16.284Z,2.57
2017-08-06T05:37:43.754Z,2.50
2017-08-06T05:40:11.321Z,2.60
2017-08-06T05:42:38.787Z,2.67
2017-08-06T05:45:06.240Z,2.80
2017-08-06T05:47:34.500Z,2.80
2017-08-06T05:50:01.973Z,3.03
2017-08-06T05:52:29.561Z,2.97
2017-08-06T05:54:57.074Z,2.53
2017-08-06T05:57:24.580Z,2.73
2017-08-06T05:59:52.037Z,3.00
2017-08-06T06:02:19.563Z,2.47
2017-08-06T06:04:47.824Z,2.67
2017-08-06T06:07:15.285Z,1.60
2017-08-06T06:09:42.751Z,1.80
2017-08-06T06:12:10.992Z,2.40
2017-08-06T06:14:38.463Z,2.30
2017-08-06T06:17:05.927Z,1.67
2017-08-06T06:19:33.389Z,2.03
2017-08-06T06:22:00.842Z,1.90
2017-08-06T06:24:28.323Z,1.37
2017-08-06T06:26:56.572Z,1.50
2017-08-06T06:29:24.048Z,1.80
2017-08-06T06:31:52.283Z,1.50
2017-08-06T06:34:19.759Z,1.57
2017-08-06T06:36:47.215Z,1.50
2017-08-06T06:39:14.691Z,1.57
2017-08-06T06:41:42.926Z,1.77
2017-08-06T06:44:10.375Z,1.23
2017-08-06T06:46:37.857Z,1.40
2017-08-06T06:49:05.329Z,1.50
2017-08-06T06:51:33.621Z,1.40
2017-08-06T06:54:01.894Z,1.67
2017-08-06T06:56:29.363Z,1.73
2017-08-06T06:58:56.820Z,1.97
2017-08-06T07:01:24.322Z,1.90
2017-08-06T07:03:51.804Z,2.10
2017-08-06T07:06:19.270Z,1.70
2017-08-06T07:08:47.545Z,1.90
2017-08-06T07:11:15.016Z,2.00
2017-08-06T07:13:42.506Z,2.03
2017-08-06T07:16:09.976Z,2.10
2017-08-06T07:18:37.439Z,2.03
2017-08-06T07:21:04.918Z,1.90
2017-08-06T07:23:32.401Z,2.10
2017-08-06T07:26:00.735Z,2.50
2017-08-06T07:28:28.414Z,2.20
2017-08-06T07:30:55.893Z,2.67
2017-08-06T07:33:24.126Z,2.37
2017-08-06T07:35:51.606Z,1.63
2017-08-06T07:38:19.083Z,1.97
2017-08-06T07:40:46.619Z,1.63
2017-08-06T07:43:14.080Z,2.00
2017-08-06T07:45:42.392Z,1.90
2017-08-06T07:48:09.904Z,2.40
2017-08-06T07:50:37.372Z,2.23
2017-08-06T07:53:05.612Z,2.00
2017-08-06T07:55:33.299Z,1.50
2017-08-06T07:58:00.752Z,2.00
2017-08-06T08:00:28.225Z,1.83
2017-08-06T08:02:56.450Z,1.73
2017-08-06T08:05:23.911Z,1.77
2017-08-06T08:07:51.404Z,2.10
2017-08-06T08:10:19.649Z,1.50
2017-08-06T08:12:47.098Z,1.90
2017-08-06T08:15:14.563Z,2.00
2017-08-06T08:17:42.051Z,1.87
2017-08-06T08:20:10.372Z,1.63
2017-08-06T08:22:37.872Z,2.40
2017-08-06T08:25:05.340Z,1.30
2017-08-06T08:27:32.907Z,1.53
2017-08-06T08:30:01.152Z,1.87
2017-08-06T08:32:28.625Z,1.70
2017-08-06T08:34:56.295Z,1.30
2017-08-06T08:37:23.799Z,1.40
2017-08-06T08:39:51.273Z,1.80
2017-08-06T08:42:18.760Z,1.40
2017-08-06T08:44:46.444Z,1.37
2017-08-06T08:47:13.902Z,1.67
2017-08-06T08:49:41.770Z,1.30
2017-08-06T08:52:09.999Z,1.20
2017-08-06T08:54:37.462Z,1.77
2017-08-06T08:57:04.927Z,1.10
2017-08-06T08:59:32.500Z,1.23
2017-08-06T09:02:00.752Z,2.20
2017-08-06T09:04:28.213Z,1.10
2017-08-06T09:06:55.683Z,1.33
2017-08-06T09:09:23.150Z,1.60
2017-08-06T09:11:50.608Z,1.23
2017-08-06T09:14:18.076Z,1.47
2017-08-06T09:16:45.626Z,1.17
2017-08-06T09:19:13.883Z,1.30
2017-08-06T09:21:41.382Z,1.43
2017-08-06T09:24:08.891Z,1.30
2017-08-06T09:26:36.356Z,1.27
2017-08-06T09:29:03.816Z,0.90
2017-08-06T09:31:32.092Z,2.07
2017-08-06T09:33:59.661Z,1.37
2017-08-06T09:36:27.879Z,1.00
2017-08-06T09:38:55.383Z,1.30
2017-08-06T09:41:22.827Z,1.20
2017-08-06T09:43:50.287Z,1.57
2017-08-06T09:46:17.763Z,1.47
2017-08-06T09:48:45.992Z,1.40
2017-08-06T09:51:13.451Z,1.33
2017-08-06T09:53:40.911Z,1.10
2017-08-06T09:56:08.367Z,1.20
2017-08-06T09:58:35.832Z,1.20
2017-08-06T10:01:03.312Z,1.40
2017-08-06T10:03:30.795Z,1.13
2017-08-06T10:05:58.246Z,1.77
2017-08-06T10:08:25.711Z,1.13
2017-08-06T10:10:53.167Z,0.90
2017-08-06T10:13:20.741Z,1.13
2017-08-06T10:15:48.210Z,1.23
2017-08-06T10:18:15.699Z,0.90
2017-08-06T10:20:43.155Z,1.00
2017-08-06T10:23:10.740Z,1.27
2017-08-06T10:25:38.975Z,1.10
2017-08-06T10:28:06.437Z,1.20
2017-08-06T10:30:34.135Z,1.00
2017-08-06T10:33:01.587Z,1.10
2017-08-06T10:35:29.050Z,1.67
2017-08-06T10:37:56.524Z,1.23
2017-08-06T10:40:24.043Z,0.90
2017-08-06T10:42:52.330Z,1.30
2017-08-06T10:45:20.567Z,1.20
2017-08-06T10:47:48.046Z,1.10
2017-08-06T10:50:15.662Z,1.30
2017-08-06T10:52:43.134Z,1.53
2017-08-06T10:55:10.596Z,1.20
2017-08-06T10:57:38.075Z,1.40
2017-08-06T11:00:05.688Z,1.30
2017-08-06T11:02:33.144Z,1.23
2017-08-06T11:05:00.659Z,1.53
2017-08-06T11:07:28.928Z,0.97
2017-08-06T11:09:56.380Z,1.40
2017-08-06T11:12:24.253Z,1.20
2017-08-06T11:14:52.518Z,1.20
2017-08-06T11:17:19.985Z,1.07
2017-08-06T11:19:47.492Z,0.90
2017-08-06T11:22:14.948Z,1.10
2017-08-06T11:24:42.415Z,1.20
2017-08-06T11:27:09.883Z,0.90
2017-08-06T11:29:37.373Z,1.03
2017-08-06T11:32:05.642Z,1.13
2017-08-06T11:34:33.191Z,1.07
2017-08-06T11:37:00.651Z,1.43
2017-08-06T11:39:28.127Z,1.10
2017-08-06T11:41:55.625Z,1.10
2017-08-06T11:44:23.094Z,1.03
2017-08-06T11:46:50.588Z,1.00
2017-08-06T11:49:18.821Z,1.17
2017-08-06T11:51:46.358Z,0.93
2017-08-06T11:54:13.810Z,0.90
2017-08-06T11:56:41.300Z,1.10
2017-08-06T11:59:08.776Z,1.30
2017-08-06T12:01:36.233Z,1.00
2017-08-06T12:04:03.726Z,1.23
2017-08-06T12:06:31.955Z,1.13
2017-08-06T12:08:59.423Z,0.90
2017-08-06T12:11:26.875Z,1.53
2017-08-06T12:13:54.908Z,1.10
2017-08-06T12:16:22.370Z,0.90
2017-08-06T12:18:49.839Z,1.00
2017-08-06T12:21:17.310Z,1.30
2017-08-06T12:23:44.776Z,1.20
2017-08-06T12:26:12.235Z,1.00
2017-08-06T12:28:39.704Z,1.03
2017-08-06T12:31:07.971Z,0.83
2017-08-06T12:33:36.264Z,1.23
2017-08-06T12:36:04.492Z,0.97
2017-08-06T12:38:31.976Z,1.60
2017-08-06T12:40:59.436Z,1.03
2017-08-06T12:43:26.902Z,0.80
2017-08-06T12:45:55.127Z,1.10
2017-08-06T12:48:22.588Z,0.90
2017-08-06T12:50:50.064Z,1.50
2017-08-06T12:53:18.353Z,1.33
2017-08-06T12:55:45.810Z,1.20
2017-08-06T12:58:13.278Z,1.50
2017-08-06T13:00:40.807Z,1.30
2017-08-06T13:03:08.287Z,1.90
2017-08-06T13:05:35.784Z,1.30
2017-08-06T13:08:03.227Z,1.53
2017-08-06T13:10:30.698Z,1.10
2017-08-06T13:12:58.458Z,0.80
2017-08-06T13:15:35.869Z,1.10
2017-08-06T13:18:03.456Z,1.20
2017-08-06T13:20:30.932Z,1.37
2017-08-06T13:22:59.231Z,1.37
2017-08-06T13:25:26.683Z,1.30
2017-08-06T13:27:54.181Z,1.27
2017-08-06T13:30:21.647Z,1.13
2017-08-06T13:32:49.120Z,1.00
2017-08-06T13:35:16.584Z,1.20
2017-08-06T13:37:44.101Z,1.13
2017-08-06T13:40:11.569Z,1.37
2017-08-06T13:42:39.044Z,1.57
2017-08-06T13:45:06.588Z,1.10
2017-08-06T13:47:34.069Z,1.27
2017-08-06T13:50:01.535Z,1.00
2017-08-06T13:52:29.816Z,1.10
2017-08-06T13:54:58.038Z,1.00
2017-08-06T13:57:25.496Z,1.20
2017-08-06T13:59:53.053Z,1.00
2017-08-06T14:02:20.503Z,1.13
2017-08-06T14:04:47.986Z,1.30
2017-08-06T14:07:15.460Z,1.57
2017-08-06T14:09:42.911Z,1.03
2017-08-06T14:12:10.367Z,1.30
2017-08-06T14:14:37.883Z,1.20
2017-08-06T14:17:05.344Z,1.20
2017-08-06T14:19:32.805Z,1.80
2017-08-06T14:22:00.321Z,1.77
2017-08-06T14:24:28.601Z,1.77
2017-08-06T14:26:56.082Z,1.53
2017-08-06T14:29:23.762Z,1.17
2017-08-06T14:31:51.211Z,1.60
2017-08-06T14:34:18.705Z,1.33
2017-08-06T14:36:46.169Z,1.30
2017-08-06T14:39:13.626Z,1.43
2017-08-06T14:41:41.901Z,1.23
2017-08-06T14:44:09.458Z,1.40
2017-08-06T14:46:36.915Z,1.40
2017-08-06T14:49:05.147Z,1.30
2017-08-06T14:51:32.633Z,1.53
2017-08-06T14:54:00.339Z,1.97
2017-08-06T14:56:27.875Z,1.40
2017-08-06T14:58:56.171Z,1.53
2017-08-06T15:01:23.669Z,1.23
2017-08-06T15:03:51.124Z,1.40
2017-08-06T15:06:18.591Z,1.03
2017-08-06T15:08:46.378Z,1.63
2017-08-06T15:11:13.834Z,1.50
2017-08-06T15:13:41.286Z,1.40
2017-08-06T15:16:08.807Z,1.40
2017-08-06T15:18:36.296Z,1.50
2017-08-06T15:21:03.760Z,1.50
2017-08-06T15:23:31.242Z,1.63
2017-08-06T15:25:58.691Z,1.50
2017-08-06T15:28:26.928Z,1.60
2017-08-06T15:30:54.400Z,2.73
2017-08-06T15:33:21.892Z,1.60
2017-08-06T15:35:49.349Z,1.70
2017-08-06T15:38:16.875Z,1.10
2017-08-06T15:40:44.332Z,1.67
2017-08-06T15:43:11.785Z,1.43
2017-08-06T15:45:39.255Z,2.03
2017-08-06T15:48:06.719Z,1.80
2017-08-06T15:50:34.174Z,2.40
2017-08-06T15:53:01.657Z,1.43
2017-08-06T15:55:29.133Z,1.67
2017-08-06T15:57:56.588Z,1.80
2017-08-06T16:00:24.060Z,1.90
2017-08-06T16:02:51.516Z,2.17
2017-08-06T16:05:18.977Z,2.20
2017-08-06T16:07:46.453Z,1.77
2017-08-06T16:10:13.910Z,1.60
2017-08-06T16:12:41.400Z,1.83
2017-08-06T16:15:08.875Z,2.50
2017-08-06T16:17:36.335Z,1.90
2017-08-06T16:20:03.796Z,1.50
2017-08-06T16:22:31.251Z,2.10
2017-08-06T16:24:58.714Z,1.90
2017-08-06T16:27:26.180Z,1.83
2017-08-06T16:29:53.740Z,1.60
2017-08-06T16:32:21.243Z,1.30
2017-08-06T16:34:48.700Z,1.47
2017-08-06T16:37:16.932Z,1.67
2017-08-06T16:39:44.472Z,1.40
2017-08-06T16:42:11.947Z,1.77
2017-08-06T16:44:40.707Z,2.47
2017-08-06T16:47:08.180Z,1.73
2017-08-06T16:49:35.680Z,1.97
2017-08-06T16:52:03.922Z,1.80
2017-08-06T16:54:31.383Z,2.10
2017-08-06T16:56:58.856Z,1.53
2017-08-06T16:59:26.314Z,2.13
2017-08-06T17:01:53.832Z,6.40
2017-08-06T17:04:21.284Z,14.77
2017-08-06T17:06:48.768Z,8.40
2017-08-06T17:09:16.235Z,4.60
2017-08-06T17:11:43.703Z,3.60
2017-08-06T17:14:11.178Z,2.10
2017-08-06T17:16:38.648Z,1.63
2017-08-06T17:19:06.161Z,5.00
2017-08-06T17:21:33.623Z,6.20
2017-08-06T17:24:01.088Z,1.70
2017-08-06T17:26:28.555Z,1.50
2017-08-06T17:28:56.011Z,2.30
2017-08-06T17:31:24.234Z,6.70
2017-08-06T17:33:51.752Z,4.90
2017-08-06T17:36:19.217Z,6.33
2017-08-06T17:38:46.687Z,4.30
2017-08-06T17:41:14.187Z,2.40
2017-08-06T17:43:41.659Z,1.90
2017-08-06T17:46:09.909Z,2.10
2017-08-06T17:48:37.435Z,1.67
2017-08-06T17:51:04.956Z,1.50
2017-08-06T17:53:33.171Z,1.50
2017-08-06T17:56:00.672Z,1.27
2017-08-06T17:58:28.127Z,2.13
2017-08-06T18:00:55.599Z,1.93
2017-08-06T18:03:23.083Z,1.33
2017-08-06T18:05:50.555Z,1.30
2017-08-06T18:08:18.064Z,1.40
2017-08-06T18:10:46.342Z,1.40
2017-08-06T18:13:14.640Z,1.40
2017-08-06T18:15:42.126Z,1.53
2017-08-06T18:18:09.622Z,2.17
2017-08-06T18:20:37.085Z,1.40
2017-08-06T18:23:05.354Z,1.40
2017-08-06T18:25:32.816Z,1.37
2017-08-06T18:28:01.042Z,1.77
2017-08-06T18:30:28.499Z,1.30
2017-08-06T18:32:55.996Z,1.20
2017-08-06T18:35:23.450Z,1.30
2017-08-06T18:37:50.913Z,1.67
2017-08-06T18:40:19.162Z,1.17
2017-08-06T18:42:46.647Z,1.27
2017-08-06T18:45:14.150Z,1.57
2017-08-06T18:47:41.634Z,1.10
2017-08-06T18:50:09.120Z,1.20
2017-08-06T18:52:36.600Z,1.20
2017-08-06T18:55:04.060Z,1.20
2017-08-06T18:57:31.540Z,1.10
2017-08-06T18:59:59.011Z,1.07
2017-08-06T19:02:26.603Z,1.20
2017-08-06T19:04:54.076Z,1.20
2017-08-06T19:07:22.653Z,1.20
2017-08-06T19:09:50.900Z,1.40
2017-08-06T19:12:18.387Z,0.90
2017-08-06T19:14:46.637Z,1.20
2017-08-06T19:17:14.192Z,1.20
2017-08-06T19:19:41.781Z,0.93
2017-08-06T19:22:10.025Z,0.80
2017-08-06T19:24:38.131Z,1.00
2017-08-06T19:27:06.375Z,1.00
2017-08-06T19:29:33.855Z,1.20
2017-08-06T19:32:02.134Z,1.20
2017-08-06T19:34:29.629Z,1.10
2017-08-06T19:36:57.141Z,1.30
2017-08-06T19:39:25.391Z,1.23
2017-08-06T19:41:52.871Z,1.40
2017-08-06T19:44:20.364Z,1.00
2017-08-06T19:46:47.835Z,1.30
2017-08-06T19:49:15.393Z,1.23
2017-08-06T19:51:42.876Z,1.03
2017-08-06T19:54:10.451Z,1.30
2017-08-06T19:56:37.931Z,1.20
2017-08-06T19:59:06.425Z,1.23
2017-08-06T20:01:33.908Z,1.40
2017-08-06T20:04:01.390Z,1.07
2017-08-06T20:06:28.867Z,1.30
2017-08-06T20:08:56.340Z,1.47
2017-08-06T20:11:24.572Z,1.00
2017-08-06T20:13:52.023Z,1.40
2017-08-06T20:16:19.511Z,1.50
2017-08-06T20:18:47.864Z,1.23
2017-08-06T20:21:15.354Z,1.73
2017-08-06T20:23:43.587Z,1.77
2017-08-06T20:26:11.073Z,1.47
2017-08-06T20:28:38.559Z,1.30
2017-08-06T20:31:06.816Z,1.50
2017-08-06T20:33:35.043Z,1.47
2017-08-06T20:36:02.645Z,1.60
2017-08-06T20:38:30.162Z,1.60
2017-08-06T20:40:57.668Z,1.33
2017-08-06T20:43:25.914Z,1.60
2017-08-06T20:45:53.749Z,1.57
2017-08-06T20:48:21.554Z,1.20
2017-08-06T20:50:49.189Z,1.50
2017-08-06T20:53:16.698Z,1.33
2017-08-06T20:55:44.972Z,1.07
2017-08-06T20:58:13.257Z,1.40
2017-08-06T21:00:44.188Z,1.93
2017-08-06T21:03:12.803Z,2.10
2017-08-06T21:05:41.115Z,1.60
2017-08-06T21:08:09.488Z,1.70
2017-08-06T21:10:37.104Z,1.20
2017-08-06T21:13:04.641Z,1.87
2017-08-06T21:15:33.065Z,1.50
2017-08-06T21:18:01.598Z,1.57
2017-08-06T21:20:30.089Z,1.80
2017-08-06T21:22:58.498Z,1.80
2017-08-06T21:25:26.162Z,1.33
2017-08-06T21:27:53.661Z,1.60
2017-08-06T21:30:21.132Z,1.30
2017-08-06T21:32:49.412Z,1.73
2017-08-06T21:35:17.636Z,1.50
2017-08-06T21:37:45.119Z,1.60
2017-08-06T21:40:12.603Z,1.50
2017-08-06T21:42:42.975Z,1.67
2017-08-06T21:45:10.668Z,1.53
2017-08-06T21:47:38.839Z,1.67
2017-08-06T21:50:06.467Z,1.57
2017-08-06T21:52:34.669Z,1.60
2017-08-06T21:55:02.377Z,1.67
2017-08-06T21:57:29.823Z,1.80
2017-08-06T21:59:57.340Z,1.93
2017-08-06T22:02:24.796Z,1.90
2017-08-06T22:04:52.271Z,1.90
2017-08-06T22:07:19.830Z,2.43
2017-08-06T22:09:47.293Z,2.20
2017-08-06T22:12:15.554Z,1.47
2017-08-06T22:14:43.128Z,2.20
2017-08-06T22:17:11.392Z,2.00
2017-08-06T22:19:38.871Z,1.83
2017-08-06T22:22:07.123Z,2.10
2017-08-06T22:24:34.611Z,2.23
2017-08-06T22:27:02.081Z,1.83
2017-08-06T22:29:29.605Z,2.33
2017-08-06T22:31:57.836Z,2.20
2017-08-06T22:34:25.352Z,1.70
2017-08-06T22:36:53.616Z,1.77
2017-08-06T22:39:21.855Z,1.70
2017-08-06T22:41:49.302Z,1.33
2017-08-06T22:44:16.807Z,1.60
2017-08-06T22:46:45.035Z,1.90
2017-08-06T22:49:12.579Z,2.20
2017-08-06T22:51:40.049Z,1.77
2017-08-06T22:54:07.549Z,1.73
2017-08-06T22:56:35.771Z,1.80
2017-08-06T22:59:03.255Z,1.77
2017-08-06T23:01:30.741Z,1.80
2017-08-06T23:03:59.016Z,2.20
2017-08-06T23:06:27.257Z,2.13
2017-08-06T23:08:54.756Z,2.50
2017-08-06T23:11:22.979Z,2.40
2017-08-06T23:13:50.447Z,2.80
2017-08-06T23:16:17.907Z,2.73
2017-08-06T23:18:45.369Z,2.93
2017-08-06T23:21:12.963Z,4.17
2017-08-06T23:23:41.328Z,4.10
2017-08-06T23:26:09.561Z,3.80
2017-08-06T23:28:37.063Z,3.93
2017-08-06T23:31:05.283Z,4.47
2017-08-06T23:33:32.747Z,4.50
2017-08-06T23:36:00.239Z,3.93
2017-08-06T23:38:27.695Z,4.47
2017-08-06T23:40:55.171Z,3.90
2017-08-06T23:43:23.423Z,3.30
2017-08-06T23:45:50.883Z,3.80
2017-08-06T23:48:18.343Z,4.20
2017-08-06T23:50:46.584Z,3.90
2017-08-06T23:53:14.101Z,3.90
2017-08-06T23:55:41.596Z,4.73
2017-08-06T23:58:09.093Z,4.97
